sensor_id;sensor_type;location;lat;lon;timestamp;temperature;humidity
39875;DHT22;25547;52.530;13.194;2023-06-10T00:01:52;17.40;99.90
39875;DHT22;25547;52.530;13.194;2023-06-10T00:04:23;17.50;99.90
39875;DHT22;25547;52.530;13.194;2023-06-10T00:06:49;17.50;99.90
39875;DHT22;25547;52.530;13.194;2023-06-10T00:09:15;17.40;99.90
39875;DHT22;25547;52.530;13.194;2023-06-10T00:11:41;17.50;99.90
39875;DHT22;25547;52.530;13.194;2023-06-10T00:14:09;17.50;99.90
39875;DHT22;25547;52.530;13.194;2023-06-10T00:16:38;17.40;99.90
39875;DHT22;25547;52.530;13.194;2023-06-10T00:19:04;17.30;99.90
39875;DHT22;25547;52.530;13.194;2023-06-10T00:21:31;17.40;99.90
39875;DHT22;25547;52.530;13.194;2023-06-10T00:24:03;17.40;99.90
39875;DHT22;25547;52.530;13.194;2023-06-10T00:26:31;17.40;99.90
39875;DHT22;25547;52.530;13.194;2023-06-10T00:28:57;17.60;99.90
39875;DHT22;25547;52.530;13.194;2023-06-10T00:31:23;17.30;99.90
39875;DHT22;25547;52.530;13.194;2023-06-10T00:33:53;17.30;99.90
39875;DHT22;25547;52.530;13.194;2023-06-10T00:36:19;17.30;99.90
39875;DHT22;25547;52.530;13.194;2023-06-10T00:38:47;17.20;99.90
39875;DHT22;25547;52.530;13.194;2023-06-10T00:41:13;17.20;99.90
39875;DHT22;25547;52.530;13.194;2023-06-10T00:43:41;17.10;99.90
39875;DHT22;25547;52.530;13.194;2023-06-10T00:46:07;17.20;99.90
39875;DHT22;25547;52.530;13.194;2023-06-10T00:48:33;17.20;99.90
39875;DHT22;25547;52.530;13.194;2023-06-10T00:51:01;17.00;99.90
39875;DHT22;25547;52.530;13.194;2023-06-10T00:53:28;17.00;99.90
39875;DHT22;25547;52.530;13.194;2023-06-10T00:55:56;16.90;99.90
39875;DHT22;25547;52.530;13.194;2023-06-10T00:58:23;17.00;99.90
39875;DHT22;25547;52.530;13.194;2023-06-10T01:00:52;17.10;99.90
39875;DHT22;25547;52.530;13.194;2023-06-10T01:03:20;17.10;99.90
39875;DHT22;25547;52.530;13.194;2023-06-10T01:05:57;17.10;99.90
39875;DHT22;25547;52.530;13.194;2023-06-10T01:09:02;17.00;99.90
39875;DHT22;25547;52.530;13.194;2023-06-10T01:11:46;17.00;99.90
39875;DHT22;25547;52.530;13.194;2023-06-10T01:14:17;16.90;99.90
39875;DHT22;25547;52.530;13.194;2023-06-10T01:16:43;16.70;99.90
39875;DHT22;25547;52.530;13.194;2023-06-10T01:19:11;16.70;99.90
39875;DHT22;25547;52.530;13.194;2023-06-10T01:21:38;16.70;99.90
39875;DHT22;25547;52.530;13.194;2023-06-10T01:24:06;16.80;99.90
39875;DHT22;25547;52.530;13.194;2023-06-10T01:26:34;16.70;99.90
39875;DHT22;25547;52.530;13.194;2023-06-10T01:29:03;16.80;99.90
39875;DHT22;25547;52.530;13.194;2023-06-10T01:31:52;16.70;99.90
39875;DHT22;25547;52.530;13.194;2023-06-10T01:34:23;16.90;99.90
39875;DHT22;25547;52.530;13.194;2023-06-10T01:36:56;16.90;99.90
39875;DHT22;25547;52.530;13.194;2023-06-10T01:39:23;16.90;99.90
39875;DHT22;25547;52.530;13.194;2023-06-10T01:41:52;16.80;99.90
39875;DHT22;25547;52.530;13.194;2023-06-10T01:44:23;16.80;99.90
39875;DHT22;25547;52.530;13.194;2023-06-10T01:46:48;16.70;99.90
39875;DHT22;25547;52.530;13.194;2023-06-10T01:49:14;16.50;99.90
39875;DHT22;25547;52.530;13.194;2023-06-10T01:51:40;16.60;99.90
39875;DHT22;25547;52.530;13.194;2023-06-10T01:54:06;16.50;99.90
39875;DHT22;25547;52.530;13.194;2023-06-10T01:56:32;16.60;99.90
39875;DHT22;25547;52.530;13.194;2023-06-10T01:58:58;16.50;99.90
39875;DHT22;25547;52.530;13.194;2023-06-10T02:01:28;16.50;99.90
39875;DHT22;25547;52.530;13.194;2023-06-10T02:03:54;16.50;99.90
39875;DHT22;25547;52.530;13.194;2023-06-10T02:06:19;16.40;99.90
39875;DHT22;25547;52.530;13.194;2023-06-10T02:08:50;16.50;99.90
39875;DHT22;25547;52.530;13.194;2023-06-10T02:11:15;16.50;99.90
39875;DHT22;25547;52.530;13.194;2023-06-10T02:13:43;16.60;99.90
39875;DHT22;25547;52.530;13.194;2023-06-10T02:16:09;16.60;99.90
39875;DHT22;25547;52.530;13.194;2023-06-10T02:18:39;16.40;99.90
39875;DHT22;25547;52.530;13.194;2023-06-10T02:21:08;16.30;99.90
39875;DHT22;25547;52.530;13.194;2023-06-10T02:23:36;16.40;99.90
39875;DHT22;25547;52.530;13.194;2023-06-10T02:26:05;16.40;99.90
39875;DHT22;25547;52.530;13.194;2023-06-10T02:28:31;16.40;99.90
39875;DHT22;25547;52.530;13.194;2023-06-10T02:30:57;16.30;99.90
39875;DHT22;25547;52.530;13.194;2023-06-10T02:33:30;16.30;99.90
39875;DHT22;25547;52.530;13.194;2023-06-10T02:35:56;16.20;99.90
39875;DHT22;25547;52.530;13.194;2023-06-10T02:38:22;16.20;99.90
39875;DHT22;25547;52.530;13.194;2023-06-10T02:40:50;16.20;99.90
39875;DHT22;25547;52.530;13.194;2023-06-10T02:43:15;16.20;99.90
39875;DHT22;25547;52.530;13.194;2023-06-10T02:45:41;16.00;99.90
39875;DHT22;25547;52.530;13.194;2023-06-10T02:48:07;16.10;99.90
39875;DHT22;25547;52.530;13.194;2023-06-10T02:50:32;16.20;99.90
39875;DHT22;25547;52.530;13.194;2023-06-10T02:52:58;16.20;99.90
39875;DHT22;25547;52.530;13.194;2023-06-10T02:55:24;16.20;99.90
39875;DHT22;25547;52.530;13.194;2023-06-10T02:57:51;16.20;99.90
39875;DHT22;25547;52.530;13.194;2023-06-10T03:00:18;16.20;99.90
39875;DHT22;25547;52.530;13.194;2023-06-10T03:02:47;16.20;99.90
39875;DHT22;25547;52.530;13.194;2023-06-10T03:05:16;16.10;99.90
39875;DHT22;25547;52.530;13.194;2023-06-10T03:07:42;16.10;99.90
39875;DHT22;25547;52.530;13.194;2023-06-10T03:10:12;16.20;99.90
39875;DHT22;25547;52.530;13.194;2023-06-10T03:12:38;16.10;99.90
39875;DHT22;25547;52.530;13.194;2023-06-10T03:15:04;16.20;99.90
39875;DHT22;25547;52.530;13.194;2023-06-10T03:17:34;16.30;99.90
39875;DHT22;25547;52.530;13.194;2023-06-10T03:20:00;16.20;99.90
39875;DHT22;25547;52.530;13.194;2023-06-10T03:22:28;16.20;99.90
39875;DHT22;25547;52.530;13.194;2023-06-10T03:24:56;16.20;99.90
39875;DHT22;25547;52.530;13.194;2023-06-10T03:27:22;16.20;99.90
39875;DHT22;25547;52.530;13.194;2023-06-10T03:29:50;16.20;99.90
39875;DHT22;25547;52.530;13.194;2023-06-10T03:32:16;16.20;99.90
39875;DHT22;25547;52.530;13.194;2023-06-10T03:34:42;16.10;99.90
39875;DHT22;25547;52.530;13.194;2023-06-10T03:37:09;16.20;99.90
39875;DHT22;25547;52.530;13.194;2023-06-10T03:39:35;16.30;99.90
39875;DHT22;25547;52.530;13.194;2023-06-10T03:42:01;16.30;99.90
39875;DHT22;25547;52.530;13.194;2023-06-10T03:44:29;16.30;99.90
39875;DHT22;25547;52.530;13.194;2023-06-10T03:46:55;16.30;99.90
39875;DHT22;25547;52.530;13.194;2023-06-10T03:49:21;16.20;99.90
39875;DHT22;25547;52.530;13.194;2023-06-10T03:51:50;16.30;99.90
39875;DHT22;25547;52.530;13.194;2023-06-10T03:54:18;16.30;99.90
39875;DHT22;25547;52.530;13.194;2023-06-10T03:56:44;16.30;99.90
39875;DHT22;25547;52.530;13.194;2023-06-10T03:59:09;16.30;99.90
39875;DHT22;25547;52.530;13.194;2023-06-10T04:01:35;16.40;99.90
39875;DHT22;25547;52.530;13.194;2023-06-10T04:04:02;16.40;99.90
39875;DHT22;25547;52.530;13.194;2023-06-10T04:06:28;16.40;99.90
39875;DHT22;25547;52.530;13.194;2023-06-10T04:08:54;16.40;99.90
39875;DHT22;25547;52.530;13.194;2023-06-10T04:11:24;16.40;99.90
39875;DHT22;25547;52.530;13.194;2023-06-10T04:13:52;16.50;99.90
39875;DHT22;25547;52.530;13.194;2023-06-10T04:16:18;16.70;99.90
39875;DHT22;25547;52.530;13.194;2023-06-10T04:18:43;16.60;99.90
39875;DHT22;25547;52.530;13.194;2023-06-10T04:21:11;16.60;99.90
39875;DHT22;25547;52.530;13.194;2023-06-10T04:23:37;16.60;99.90
39875;DHT22;25547;52.530;13.194;2023-06-10T04:26:04;16.50;99.90
39875;DHT22;25547;52.530;13.194;2023-06-10T04:28:31;16.60;99.90
39875;DHT22;25547;52.530;13.194;2023-06-10T04:30:56;16.50;99.90
39875;DHT22;25547;52.530;13.194;2023-06-10T04:33:23;16.60;99.90
39875;DHT22;25547;52.530;13.194;2023-06-10T04:35:49;16.60;99.90
39875;DHT22;25547;52.530;13.194;2023-06-10T04:38:15;16.60;99.90
39875;DHT22;25547;52.530;13.194;2023-06-10T04:40:41;16.70;99.90
39875;DHT22;25547;52.530;13.194;2023-06-10T04:43:09;16.80;99.90
39875;DHT22;25547;52.530;13.194;2023-06-10T04:45:37;16.90;99.90
39875;DHT22;25547;52.530;13.194;2023-06-10T04:48:02;17.00;99.90
39875;DHT22;25547;52.530;13.194;2023-06-10T04:50:28;17.00;99.90
39875;DHT22;25547;52.530;13.194;2023-06-10T04:52:54;17.10;99.90
39875;DHT22;25547;52.530;13.194;2023-06-10T04:55:24;17.20;99.90
39875;DHT22;25547;52.530;13.194;2023-06-10T04:57:51;17.30;99.90
39875;DHT22;25547;52.530;13.194;2023-06-10T05:00:17;17.30;99.90
39875;DHT22;25547;52.530;13.194;2023-06-10T05:02:43;17.30;99.90
39875;DHT22;25547;52.530;13.194;2023-06-10T05:05:08;17.40;99.90
39875;DHT22;25547;52.530;13.194;2023-06-10T05:07:36;17.30;99.90
39875;DHT22;25547;52.530;13.194;2023-06-10T05:10:02;17.50;99.90
39875;DHT22;25547;52.530;13.194;2023-06-10T05:12:30;17.50;99.90
39875;DHT22;25547;52.530;13.194;2023-06-10T05:14:56;17.60;99.90
39875;DHT22;25547;52.530;13.194;2023-06-10T05:17:22;17.60;99.90
39875;DHT22;25547;52.530;13.194;2023-06-10T05:19:48;17.70;99.90
39875;DHT22;25547;52.530;13.194;2023-06-10T05:22:13;17.80;99.90
39875;DHT22;25547;52.530;13.194;2023-06-10T05:24:44;17.80;99.90
39875;DHT22;25547;52.530;13.194;2023-06-10T05:27:10;17.80;99.90
39875;DHT22;25547;52.530;13.194;2023-06-10T05:29:36;17.80;99.90
39875;DHT22;25547;52.530;13.194;2023-06-10T05:32:03;17.90;99.90
39875;DHT22;25547;52.530;13.194;2023-06-10T05:34:31;17.90;99.90
39875;DHT22;25547;52.530;13.194;2023-06-10T05:36:57;18.10;99.90
39875;DHT22;25547;52.530;13.194;2023-06-10T05:39:23;18.10;99.90
39875;DHT22;25547;52.530;13.194;2023-06-10T05:41:49;18.30;99.90
39875;DHT22;25547;52.530;13.194;2023-06-10T05:44:14;18.40;99.90
39875;DHT22;25547;52.530;13.194;2023-06-10T05:46:40;18.30;99.90
39875;DHT22;25547;52.530;13.194;2023-06-10T05:49:08;18.20;99.90
39875;DHT22;25547;52.530;13.194;2023-06-10T05:51:34;18.10;99.90
39875;DHT22;25547;52.530;13.194;2023-06-10T05:54:02;18.00;99.90
39875;DHT22;25547;52.530;13.194;2023-06-10T05:56:30;18.00;99.90
39875;DHT22;25547;52.530;13.194;2023-06-10T05:58:58;17.90;99.90
39875;DHT22;25547;52.530;13.194;2023-06-10T06:01:24;18.00;99.90
39875;DHT22;25547;52.530;13.194;2023-06-10T06:03:50;18.10;99.90
39875;DHT22;25547;52.530;13.194;2023-06-10T06:06:15;18.20;99.90
39875;DHT22;25547;52.530;13.194;2023-06-10T06:08:43;18.40;99.90
39875;DHT22;25547;52.530;13.194;2023-06-10T06:11:09;18.50;99.90
39875;DHT22;25547;52.530;13.194;2023-06-10T06:13:34;18.60;99.90
39875;DHT22;25547;52.530;13.194;2023-06-10T06:16:00;18.70;99.90
39875;DHT22;25547;52.530;13.194;2023-06-10T06:18:31;18.90;99.90
39875;DHT22;25547;52.530;13.194;2023-06-10T06:20:56;19.10;99.90
39875;DHT22;25547;52.530;13.194;2023-06-10T06:23:22;19.20;99.90
39875;DHT22;25547;52.530;13.194;2023-06-10T06:25:48;19.40;99.90
39875;DHT22;25547;52.530;13.194;2023-06-10T06:28:16;19.40;99.50
39875;DHT22;25547;52.530;13.194;2023-06-10T06:30:44;19.60;99.10
39875;DHT22;25547;52.530;13.194;2023-06-10T06:33:16;19.70;98.60
39875;DHT22;25547;52.530;13.194;2023-06-10T06:35:49;19.90;98.80
39875;DHT22;25547;52.530;13.194;2023-06-10T06:38:16;20.00;97.60
39875;DHT22;25547;52.530;13.194;2023-06-10T06:40:44;20.10;97.50
39875;DHT22;25547;52.530;13.194;2023-06-10T06:43:12;20.20;97.20
39875;DHT22;25547;52.530;13.194;2023-06-10T06:45:38;20.50;97.30
39875;DHT22;25547;52.530;13.194;2023-06-10T06:48:06;20.70;95.90
39875;DHT22;25547;52.530;13.194;2023-06-10T06:50:34;20.80;95.40
39875;DHT22;25547;52.530;13.194;2023-06-10T06:53:02;21.10;95.20
39875;DHT22;25547;52.530;13.194;2023-06-10T06:55:30;21.20;94.00
39875;DHT22;25547;52.530;13.194;2023-06-10T06:57:58;21.30;93.70
39875;DHT22;25547;52.530;13.194;2023-06-10T07:00:28;20.80;93.90
39875;DHT22;25547;52.530;13.194;2023-06-10T07:02:53;21.10;93.80
39875;DHT22;25547;52.530;13.194;2023-06-10T07:05:19;21.20;93.50
39875;DHT22;25547;52.530;13.194;2023-06-10T07:07:44;22.30;92.00
39875;DHT22;25547;52.530;13.194;2023-06-10T07:10:10;22.60;90.00
39875;DHT22;25547;52.530;13.194;2023-06-10T07:12:36;23.20;88.20
39875;DHT22;25547;52.530;13.194;2023-06-10T07:15:02;22.80;86.90
39875;DHT22;25547;52.530;13.194;2023-06-10T07:17:28;22.40;89.60
39875;DHT22;25547;52.530;13.194;2023-06-10T07:19:53;22.20;89.40
39875;DHT22;25547;52.530;13.194;2023-06-10T07:22:22;21.70;90.30
39875;DHT22;25547;52.530;13.194;2023-06-10T07:24:48;21.50;91.00
39875;DHT22;25547;52.530;13.194;2023-06-10T07:27:18;21.10;91.80
39875;DHT22;25547;52.530;13.194;2023-06-10T07:29:46;20.90;92.20
39875;DHT22;25547;52.530;13.194;2023-06-10T07:32:12;20.90;92.40
39875;DHT22;25547;52.530;13.194;2023-06-10T07:34:43;20.80;92.50
39875;DHT22;25547;52.530;13.194;2023-06-10T07:37:08;20.90;92.50
39875;DHT22;25547;52.530;13.194;2023-06-10T07:39:34;21.00;92.60
39875;DHT22;25547;52.530;13.194;2023-06-10T07:42:00;21.20;92.10
39875;DHT22;25547;52.530;13.194;2023-06-10T07:44:28;21.40;92.00
39875;DHT22;25547;52.530;13.194;2023-06-10T07:46:54;21.60;91.50
39875;DHT22;25547;52.530;13.194;2023-06-10T07:49:20;23.50;89.40
39875;DHT22;25547;52.530;13.194;2023-06-10T07:51:48;26.40;77.60
39875;DHT22;25547;52.530;13.194;2023-06-10T07:54:13;28.30;67.60
39875;DHT22;25547;52.530;13.194;2023-06-10T07:56:41;27.20;67.00
39875;DHT22;25547;52.530;13.194;2023-06-10T07:59:07;25.80;70.30
39875;DHT22;25547;52.530;13.194;2023-06-10T08:01:32;25.10;72.60
39875;DHT22;25547;52.530;13.194;2023-06-10T08:04:03;24.90;74.70
39875;DHT22;25547;52.530;13.194;2023-06-10T08:06:31;25.80;74.10
39875;DHT22;25547;52.530;13.194;2023-06-10T08:08:56;30.70;60.40
39875;DHT22;25547;52.530;13.194;2023-06-10T08:11:22;34.00;52.90
39875;DHT22;25547;52.530;13.194;2023-06-10T08:13:48;35.90;47.50
39875;DHT22;25547;52.530;13.194;2023-06-10T08:16:14;34.80;45.50
39875;DHT22;25547;52.530;13.194;2023-06-10T08:18:40;34.30;46.30
39875;DHT22;25547;52.530;13.194;2023-06-10T08:21:05;35.60;44.20
39875;DHT22;25547;52.530;13.194;2023-06-10T08:23:31;34.80;44.00
39875;DHT22;25547;52.530;13.194;2023-06-10T08:25:57;33.10;46.40
39875;DHT22;25547;52.530;13.194;2023-06-10T08:28:23;33.40;47.80
39875;DHT22;25547;52.530;13.194;2023-06-10T08:30:49;31.40;49.90
39875;DHT22;25547;52.530;13.194;2023-06-10T08:33:14;29.80;54.00
39875;DHT22;25547;52.530;13.194;2023-06-10T08:35:40;29.30;55.50
39875;DHT22;25547;52.530;13.194;2023-06-10T08:38:06;28.60;56.90
39875;DHT22;25547;52.530;13.194;2023-06-10T08:40:32;28.20;58.40
39875;DHT22;25547;52.530;13.194;2023-06-10T08:43:16;27.50;59.60
39875;DHT22;25547;52.530;13.194;2023-06-10T08:45:42;27.40;60.70
39875;DHT22;25547;52.530;13.194;2023-06-10T08:48:10;27.30;61.50
39875;DHT22;25547;52.530;13.194;2023-06-10T08:50:37;27.30;61.50
39875;DHT22;25547;52.530;13.194;2023-06-10T08:53:05;27.00;62.80
39875;DHT22;25547;52.530;13.194;2023-06-10T08:55:48;26.90;62.60
39875;DHT22;25547;52.530;13.194;2023-06-10T08:58:19;27.00;62.60
39875;DHT22;25547;52.530;13.194;2023-06-10T09:00:45;26.50;62.60
39875;DHT22;25547;52.530;13.194;2023-06-10T09:03:13;26.60;63.80
39875;DHT22;25547;52.530;13.194;2023-06-10T09:05:40;26.50;64.00
39875;DHT22;25547;52.530;13.194;2023-06-10T09:08:09;26.60;64.10
39875;DHT22;25547;52.530;13.194;2023-06-10T09:10:35;26.50;63.60
39875;DHT22;25547;52.530;13.194;2023-06-10T09:13:04;26.70;63.30
39875;DHT22;25547;52.530;13.194;2023-06-10T09:15:30;26.50;63.70
39875;DHT22;25547;52.530;13.194;2023-06-10T09:17:56;26.00;64.70
39875;DHT22;25547;52.530;13.194;2023-06-10T09:20:23;25.80;65.90
39875;DHT22;25547;52.530;13.194;2023-06-10T09:22:51;25.60;66.60
39875;DHT22;25547;52.530;13.194;2023-06-10T09:25:20;25.50;67.20
39875;DHT22;25547;52.530;13.194;2023-06-10T09:27:59;25.20;67.70
39875;DHT22;25547;52.530;13.194;2023-06-10T09:30:26;25.00;68.80
39875;DHT22;25547;52.530;13.194;2023-06-10T09:32:56;24.70;69.60
39875;DHT22;25547;52.530;13.194;2023-06-10T09:35:26;24.50;70.60
39875;DHT22;25547;52.530;13.194;2023-06-10T09:37:53;24.20;71.40
39875;DHT22;25547;52.530;13.194;2023-06-10T09:40:19;24.00;72.20
39875;DHT22;25547;52.530;13.194;2023-06-10T09:42:54;23.90;73.40
39875;DHT22;25547;52.530;13.194;2023-06-10T09:45:21;23.80;73.60
39875;DHT22;25547;52.530;13.194;2023-06-10T09:47:53;23.90;74.50
39875;DHT22;25547;52.530;13.194;2023-06-10T09:50:21;23.90;74.40
39875;DHT22;25547;52.530;13.194;2023-06-10T09:52:47;23.80;74.70
39875;DHT22;25547;52.530;13.194;2023-06-10T09:55:14;23.70;75.20
39875;DHT22;25547;52.530;13.194;2023-06-10T09:57:40;23.60;75.30
39875;DHT22;25547;52.530;13.194;2023-06-10T10:00:09;23.60;75.60
39875;DHT22;25547;52.530;13.194;2023-06-10T10:02:53;23.60;75.70
39875;DHT22;25547;52.530;13.194;2023-06-10T10:05:21;23.60;75.80
39875;DHT22;25547;52.530;13.194;2023-06-10T10:07:49;23.50;75.90
39875;DHT22;25547;52.530;13.194;2023-06-10T10:10:18;23.40;76.30
39875;DHT22;25547;52.530;13.194;2023-06-10T10:12:47;23.40;76.90
39875;DHT22;25547;52.530;13.194;2023-06-10T10:15:16;23.60;76.70
39875;DHT22;25547;52.530;13.194;2023-06-10T10:18:12;23.60;76.90
39875;DHT22;25547;52.530;13.194;2023-06-10T10:20:46;23.40;77.00
39875;DHT22;25547;52.530;13.194;2023-06-10T10:23:14;23.30;77.80
39875;DHT22;25547;52.530;13.194;2023-06-10T10:25:44;23.20;78.00
39875;DHT22;25547;52.530;13.194;2023-06-10T10:28:12;23.10;78.40
39875;DHT22;25547;52.530;13.194;2023-06-10T10:30:53;23.00;79.00
39875;DHT22;25547;52.530;13.194;2023-06-10T10:33:22;23.10;79.00
39875;DHT22;25547;52.530;13.194;2023-06-10T10:35:54;23.10;79.50
39875;DHT22;25547;52.530;13.194;2023-06-10T10:38:21;23.00;79.60
39875;DHT22;25547;52.530;13.194;2023-06-10T10:40:47;23.00;81.30
39875;DHT22;25547;52.530;13.194;2023-06-10T10:43:14;22.80;82.40
39875;DHT22;25547;52.530;13.194;2023-06-10T10:45:41;22.80;83.00
39875;DHT22;25547;52.530;13.194;2023-06-10T10:48:09;22.70;83.90
39875;DHT22;25547;52.530;13.194;2023-06-10T10:50:38;22.60;84.00
39875;DHT22;25547;52.530;13.194;2023-06-10T10:53:05;22.60;84.50
39875;DHT22;25547;52.530;13.194;2023-06-10T10:55:33;22.50;84.70
39875;DHT22;25547;52.530;13.194;2023-06-10T11:00:33;22.40;85.80
39875;DHT22;25547;52.530;13.194;2023-06-10T11:05:41;22.30;85.80
39875;DHT22;25547;52.530;13.194;2023-06-10T11:08:12;22.40;86.20
39875;DHT22;25547;52.530;13.194;2023-06-10T11:10:50;22.40;85.20
39875;DHT22;25547;52.530;13.194;2023-06-10T11:13:20;22.40;84.70
39875;DHT22;25547;52.530;13.194;2023-06-10T11:15:48;22.40;84.70
39875;DHT22;25547;52.530;13.194;2023-06-10T11:26:14;22.80;82.50
39875;DHT22;25547;52.530;13.194;2023-06-10T11:31:49;23.00;79.40
39875;DHT22;25547;52.530;13.194;2023-06-10T11:34:24;23.20;79.90
39875;DHT22;25547;52.530;13.194;2023-06-10T11:36:54;23.30;79.30
39875;DHT22;25547;52.530;13.194;2023-06-10T11:39:22;23.40;78.70
39875;DHT22;25547;52.530;13.194;2023-06-10T11:41:50;23.40;78.20
39875;DHT22;25547;52.530;13.194;2023-06-10T11:44:19;23.40;77.60
39875;DHT22;25547;52.530;13.194;2023-06-10T11:46:48;23.50;77.60
39875;DHT22;25547;52.530;13.194;2023-06-10T11:49:15;23.50;78.60
39875;DHT22;25547;52.530;13.194;2023-06-10T11:51:43;23.50;77.60
39875;DHT22;25547;52.530;13.194;2023-06-10T11:54:17;23.60;77.00
39875;DHT22;25547;52.530;13.194;2023-06-10T11:56:43;23.70;76.80
39875;DHT22;25547;52.530;13.194;2023-06-10T11:59:11;23.70;76.90
39875;DHT22;25547;52.530;13.194;2023-06-10T12:01:42;23.80;75.80
39875;DHT22;25547;52.530;13.194;2023-06-10T12:04:12;23.80;75.80
39875;DHT22;25547;52.530;13.194;2023-06-10T12:09:06;23.70;75.50
39875;DHT22;25547;52.530;13.194;2023-06-10T12:11:34;23.70;76.20
39875;DHT22;25547;52.530;13.194;2023-06-10T12:14:04;23.50;75.50
39875;DHT22;25547;52.530;13.194;2023-06-10T12:16:31;23.30;73.80
39875;DHT22;25547;52.530;13.194;2023-06-10T12:19:04;23.10;74.70
39875;DHT22;25547;52.530;13.194;2023-06-10T12:21:32;22.90;76.00
39875;DHT22;25547;52.530;13.194;2023-06-10T12:24:06;22.90;76.80
39875;DHT22;25547;52.530;13.194;2023-06-10T12:29:23;22.50;80.10
39875;DHT22;25547;52.530;13.194;2023-06-10T12:34:18;22.40;82.00
39875;DHT22;25547;52.530;13.194;2023-06-10T12:36:49;22.40;82.50
39875;DHT22;25547;52.530;13.194;2023-06-10T12:39:17;22.40;83.40
39875;DHT22;25547;52.530;13.194;2023-06-10T12:41:48;22.40;83.40
39875;DHT22;25547;52.530;13.194;2023-06-10T12:44:17;22.60;83.40
39875;DHT22;25547;52.530;13.194;2023-06-10T12:46:43;22.60;82.10
39875;DHT22;25547;52.530;13.194;2023-06-10T12:49:21;22.80;82.20
39875;DHT22;25547;52.530;13.194;2023-06-10T12:51:47;22.90;81.50
39875;DHT22;25547;52.530;13.194;2023-06-10T12:54:15;23.00;81.20
39875;DHT22;25547;52.530;13.194;2023-06-10T12:56:40;23.20;80.60
39875;DHT22;25547;52.530;13.194;2023-06-10T12:59:06;23.30;80.60
39875;DHT22;25547;52.530;13.194;2023-06-10T13:01:36;23.40;79.20
39875;DHT22;25547;52.530;13.194;2023-06-10T13:04:05;23.50;78.30
39875;DHT22;25547;52.530;13.194;2023-06-10T13:06:35;23.70;75.70
39875;DHT22;25547;52.530;13.194;2023-06-10T13:09:04;23.80;73.40
39875;DHT22;25547;52.530;13.194;2023-06-10T13:11:32;23.90;72.80
39875;DHT22;25547;52.530;13.194;2023-06-10T13:13:59;24.10;71.70
39875;DHT22;25547;52.530;13.194;2023-06-10T13:16:25;24.30;70.80
39875;DHT22;25547;52.530;13.194;2023-06-10T13:18:53;24.40;70.10
39875;DHT22;25547;52.530;13.194;2023-06-10T13:21:19;24.50;70.20
39875;DHT22;25547;52.530;13.194;2023-06-10T13:23:45;24.60;70.40
39875;DHT22;25547;52.530;13.194;2023-06-10T13:26:15;24.60;70.70
39875;DHT22;25547;52.530;13.194;2023-06-10T13:28:44;25.00;70.00
39875;DHT22;25547;52.530;13.194;2023-06-10T13:31:10;25.00;69.60
39875;DHT22;25547;52.530;13.194;2023-06-10T13:33:36;24.90;70.70
39875;DHT22;25547;52.530;13.194;2023-06-10T13:36:02;25.00;70.80
39875;DHT22;25547;52.530;13.194;2023-06-10T13:38:28;25.00;70.90
39875;DHT22;25547;52.530;13.194;2023-06-10T13:40:53;25.20;70.60
39875;DHT22;25547;52.530;13.194;2023-06-10T13:43:21;25.10;71.40
39875;DHT22;25547;52.530;13.194;2023-06-10T13:45:51;25.10;71.60
39875;DHT22;25547;52.530;13.194;2023-06-10T13:48:19;25.10;70.90
39875;DHT22;25547;52.530;13.194;2023-06-10T13:50:45;25.30;70.90
39875;DHT22;25547;52.530;13.194;2023-06-10T13:53:12;25.40;70.50
39875;DHT22;25547;52.530;13.194;2023-06-10T13:55:40;25.30;70.60
39875;DHT22;25547;52.530;13.194;2023-06-10T13:58:05;25.30;70.50
39875;DHT22;25547;52.530;13.194;2023-06-10T14:00:33;25.30;69.80
39875;DHT22;25547;52.530;13.194;2023-06-10T14:02:59;25.30;70.00
39875;DHT22;25547;52.530;13.194;2023-06-10T14:05:25;25.30;69.90
39875;DHT22;25547;52.530;13.194;2023-06-10T14:07:51;25.60;68.30
39875;DHT22;25547;52.530;13.194;2023-06-10T14:10:21;25.70;67.80
39875;DHT22;25547;52.530;13.194;2023-06-10T14:12:48;25.60;67.60
39875;DHT22;25547;52.530;13.194;2023-06-10T14:15:16;25.60;67.60
39875;DHT22;25547;52.530;13.194;2023-06-10T14:17:44;25.60;68.00
39875;DHT22;25547;52.530;13.194;2023-06-10T14:20:12;25.60;67.00
39875;DHT22;25547;52.530;13.194;2023-06-10T14:22:38;25.70;66.20
39875;DHT22;25547;52.530;13.194;2023-06-10T14:25:04;25.80;64.90
39875;DHT22;25547;52.530;13.194;2023-06-10T14:27:30;25.80;63.10
39875;DHT22;25547;52.530;13.194;2023-06-10T14:29:55;25.80;63.60
39875;DHT22;25547;52.530;13.194;2023-06-10T14:32:21;25.80;64.00
39875;DHT22;25547;52.530;13.194;2023-06-10T14:34:47;26.00;65.00
39875;DHT22;25547;52.530;13.194;2023-06-10T14:37:13;26.00;66.00
39875;DHT22;25547;52.530;13.194;2023-06-10T14:39:38;26.00;65.40
39875;DHT22;25547;52.530;13.194;2023-06-10T14:42:04;26.00;64.30
39875;DHT22;25547;52.530;13.194;2023-06-10T14:44:33;25.80;64.00
39875;DHT22;25547;52.530;13.194;2023-06-10T14:46:58;25.70;63.70
39875;DHT22;25547;52.530;13.194;2023-06-10T14:49:24;25.70;63.00
39875;DHT22;25547;52.530;13.194;2023-06-10T14:51:50;25.70;63.40
39875;DHT22;25547;52.530;13.194;2023-06-10T14:54:16;25.80;61.90
39875;DHT22;25547;52.530;13.194;2023-06-10T14:56:44;25.80;60.80
39875;DHT22;25547;52.530;13.194;2023-06-10T14:59:10;25.80;59.80
39875;DHT22;25547;52.530;13.194;2023-06-10T15:01:38;25.80;59.40
39875;DHT22;25547;52.530;13.194;2023-06-10T15:04:06;25.80;59.80
39875;DHT22;25547;52.530;13.194;2023-06-10T15:06:34;25.80;58.80
39875;DHT22;25547;52.530;13.194;2023-06-10T15:08:59;25.80;57.80
39875;DHT22;25547;52.530;13.194;2023-06-10T15:11:28;25.70;57.00
39875;DHT22;25547;52.530;13.194;2023-06-10T15:13:53;25.80;57.90
39875;DHT22;25547;52.530;13.194;2023-06-10T15:16:19;25.70;59.20
39875;DHT22;25547;52.530;13.194;2023-06-10T15:18:47;25.70;59.40
39875;DHT22;25547;52.530;13.194;2023-06-10T15:21:15;25.90;59.20
39875;DHT22;25547;52.530;13.194;2023-06-10T15:23:41;25.90;58.60
39875;DHT22;25547;52.530;13.194;2023-06-10T15:26:06;26.00;58.20
39875;DHT22;25547;52.530;13.194;2023-06-10T15:28:32;26.00;58.40
39875;DHT22;25547;52.530;13.194;2023-06-10T15:30:58;25.90;57.70
39875;DHT22;25547;52.530;13.194;2023-06-10T15:33:23;26.10;57.10
39875;DHT22;25547;52.530;13.194;2023-06-10T15:35:49;26.10;57.20
39875;DHT22;25547;52.530;13.194;2023-06-10T15:38:15;26.00;56.40
39875;DHT22;25547;52.530;13.194;2023-06-10T15:40:41;26.10;56.20
39875;DHT22;25547;52.530;13.194;2023-06-10T15:43:06;26.10;55.90